Terminal Aerodrome Forecast
Issued by NWS

Home | Current Version | Previous Version | Text Only | Print | Product List | Glossary On
Versions: 1 2 3 4 5 6 7 8 9 10 11 12 13 14 15 16 17 18 19 20 21 22 23 24 25 26 27 28 29 30 31 32 33 34 35 36 37 38 39 40 41 42 43 44 45 46 47 48 49 50
093
FTUS43 KMKX 231750
TAFUES
TAF
KUES 231750Z 2318/2418 03009KT P6SM OVC015
     FM232100 06013KT P6SM OVC050
     FM232300 05013KT P6SM VCSH OVC060
     FM240100 05012G21KT 5SM RASNPL OVC025
     FM240300 05013G23KT 3SM RA OVC015
     FM240700 05015G27KT 2SM RA OVC003
     FM241000 06016G28KT 2SM RA VCTS OVC008CB
     FM241300 05014G25KT 3SM -RA OVC003=

USA.gov is the U.S. government's official web portal to all federal, state and local government web resources and services.